createdAt,value
2022-10-14T00:02:22.830Z,11.89
2022-10-14T00:04:49.263Z,11.92
2022-10-14T00:07:15.869Z,11.93
2022-10-14T00:09:42.762Z,11.90
2022-10-14T00:12:09.454Z,11.89
2022-10-14T00:14:35.899Z,11.90
2022-10-14T00:17:02.653Z,11.89
2022-10-14T00:19:29.084Z,11.86
2022-10-14T00:21:55.644Z,11.91
2022-10-14T00:24:22.613Z,11.89
2022-10-14T00:26:49.103Z,11.89
2022-10-14T00:29:18.814Z,11.90
2022-10-14T00:31:47.249Z,11.91
2022-10-14T00:34:15.860Z,12.06
2022-10-14T00:36:43.475Z,11.97
2022-10-14T00:39:10.926Z,12.05
2022-10-14T00:41:38.271Z,12.09
2022-10-14T00:44:15.704Z,12.01
2022-10-14T00:46:47.090Z,11.99
2022-10-14T00:49:15.511Z,11.97
2022-10-14T00:51:46.922Z,12.03
2022-10-14T00:54:16.714Z,11.98
2022-10-14T00:56:44.906Z,12.07
2022-10-14T00:59:11.987Z,12.10
2022-10-14T01:01:38.407Z,12.05
2022-10-14T01:04:04.984Z,12.03
2022-10-14T01:06:47.595Z,12.05
2022-10-14T01:10:04.055Z,12.09
2022-10-14T01:12:36.241Z,12.03
2022-10-14T01:15:23.040Z,12.07
2022-10-14T01:18:31.047Z,12.13
2022-10-14T01:21:01.585Z,12.15
2022-10-14T01:23:37.160Z,12.13
2022-10-14T01:26:15.800Z,12.06
2022-10-14T01:29:13.063Z,12.04
2022-10-14T01:31:47.781Z,12.07
2022-10-14T01:34:22.473Z,12.02
2022-10-14T01:36:55.856Z,12.11
2022-10-14T01:39:29.712Z,12.13
2022-10-14T01:42:02.323Z,12.05
2022-10-14T01:44:31.031Z,12.11
2022-10-14T01:46:59.272Z,12.17
2022-10-14T01:49:35.641Z,12.11
2022-10-14T01:52:16.427Z,12.14
2022-10-14T01:54:46.881Z,12.11
2022-10-14T01:57:19.451Z,12.13
2022-10-14T01:59:47.615Z,12.13
2022-10-14T02:02:14.365Z,12.16
2022-10-14T02:04:41.054Z,12.19
2022-10-14T02:07:16.805Z,12.16
2022-10-14T02:09:56.594Z,12.16
2022-10-14T02:12:37.932Z,12.14
2022-10-14T02:15:21.853Z,12.15
2022-10-14T02:17:57.345Z,12.10
2022-10-14T02:20:53.380Z,12.15
2022-10-14T02:23:22.161Z,12.22
2022-10-14T02:25:50.137Z,12.13
2022-10-14T02:28:21.186Z,12.09
2022-10-14T02:31:04.675Z,12.09
2022-10-14T02:33:36.405Z,12.07
2022-10-14T02:36:05.686Z,12.09
2022-10-14T02:38:33.324Z,12.10
2022-10-14T02:41:04.558Z,12.09
2022-10-14T02:43:31.266Z,12.10
2022-10-14T02:46:00.505Z,12.11
2022-10-14T02:48:27.070Z,12.12
2022-10-14T02:50:53.499Z,12.08
2022-10-14T02:53:20.142Z,12.10
2022-10-14T02:55:46.806Z,12.12
2022-10-14T02:58:13.321Z,12.17
2022-10-14T03:00:39.745Z,12.14
2022-10-14T03:03:06.881Z,12.18
2022-10-14T03:05:33.498Z,12.15
2022-10-14T03:08:00.244Z,12.18
2022-10-14T03:10:26.856Z,12.08
2022-10-14T03:12:53.510Z,12.15
2022-10-14T03:15:19.893Z,12.17
2022-10-14T03:17:46.392Z,12.14
2022-10-14T03:20:12.840Z,12.15
2022-10-14T03:22:39.343Z,12.13
2022-10-14T03:25:06.289Z,12.12
2022-10-14T03:27:32.888Z,12.12
2022-10-14T03:29:59.430Z,12.22
2022-10-14T03:32:26.133Z,12.11
2022-10-14T03:34:52.531Z,12.09
2022-10-14T03:37:19.266Z,12.11
2022-10-14T03:39:45.743Z,12.11
2022-10-14T03:42:12.589Z,12.08
2022-10-14T03:44:38.958Z,12.11
2022-10-14T03:47:05.531Z,12.10
2022-10-14T03:49:31.964Z,12.12
2022-10-14T03:51:58.381Z,12.05
2022-10-14T03:54:24.925Z,12.09
2022-10-14T03:56:51.315Z,12.13
2022-10-14T03:59:17.860Z,12.06
2022-10-14T04:01:44.334Z,12.12
2022-10-14T04:04:11.291Z,12.08
2022-10-14T04:06:37.741Z,12.10
2022-10-14T04:09:05.254Z,12.10
2022-10-14T04:11:31.677Z,12.08
2022-10-14T04:13:59.295Z,12.12
2022-10-14T04:16:27.014Z,12.16
2022-10-14T04:18:54.092Z,12.13
2022-10-14T04:21:20.888Z,12.21
2022-10-14T04:23:47.585Z,12.16
2022-10-14T04:26:14.199Z,12.17
2022-10-14T04:28:40.787Z,12.14
2022-10-14T04:31:07.737Z,12.11
2022-10-14T04:33:35.020Z,12.09
2022-10-14T04:36:04.216Z,12.05
2022-10-14T04:38:30.828Z,12.10
2022-10-14T04:40:58.336Z,12.04
2022-10-14T04:43:25.081Z,12.10
2022-10-14T04:45:51.594Z,12.08
2022-10-14T04:48:18.805Z,12.03
2022-10-14T04:50:45.368Z,12.07
2022-10-14T04:53:13.871Z,12.06
2022-10-14T04:55:41.997Z,12.05
2022-10-14T04:58:08.437Z,12.01
2022-10-14T05:00:34.984Z,12.07
2022-10-14T05:03:01.388Z,12.00
2022-10-14T05:05:28.109Z,12.04
2022-10-14T05:07:54.564Z,12.06
2022-10-14T05:10:21.718Z,12.08
2022-10-14T05:12:48.722Z,12.13
2022-10-14T05:15:15.747Z,12.09
2022-10-14T05:17:44.725Z,12.05
2022-10-14T05:20:12.552Z,12.12
2022-10-14T05:22:39.794Z,12.07
2022-10-14T05:25:06.873Z,12.04
2022-10-14T05:27:33.298Z,12.13
2022-10-14T05:30:00.907Z,12.12
2022-10-14T05:32:27.355Z,12.10
2022-10-14T05:34:54.109Z,12.08
2022-10-14T05:37:20.541Z,12.08
2022-10-14T05:39:47.051Z,12.12
2022-10-14T05:42:13.498Z,12.08
2022-10-14T05:44:40.047Z,12.04
2022-10-14T05:47:06.494Z,12.04
2022-10-14T05:49:33.006Z,12.09
2022-10-14T05:51:59.542Z,12.06
2022-10-14T05:54:25.934Z,12.04
2022-10-14T05:56:52.600Z,12.03
2022-10-14T05:59:19.467Z,12.03
2022-10-14T06:01:46.013Z,12.05
2022-10-14T06:04:20.428Z,12.07
2022-10-14T06:06:47.116Z,12.10
2022-10-14T06:09:13.828Z,12.10
2022-10-14T06:11:40.530Z,12.08
2022-10-14T06:14:07.235Z,12.10
2022-10-14T06:16:33.977Z,12.16
2022-10-14T06:19:00.592Z,12.15
2022-10-14T06:21:27.237Z,12.22
2022-10-14T06:23:53.865Z,12.25
2022-10-14T06:26:20.240Z,12.30
2022-10-14T06:28:46.877Z,12.30
2022-10-14T06:31:13.398Z,12.33
2022-10-14T06:33:40.118Z,12.33
2022-10-14T06:36:07.132Z,12.40
2022-10-14T06:38:33.730Z,12.41
2022-10-14T06:41:00.282Z,12.45
2022-10-14T06:43:26.702Z,12.44
2022-10-14T06:45:56.996Z,12.56
2022-10-14T06:48:23.394Z,12.47
2022-10-14T06:50:52.784Z,12.59
2022-10-14T06:53:19.381Z,12.54
2022-10-14T06:55:46.336Z,12.53
2022-10-14T06:58:12.713Z,12.56
2022-10-14T07:00:39.220Z,12.57
2022-10-14T07:03:06.124Z,12.59
2022-10-14T07:05:32.685Z,12.57
2022-10-14T07:10:25.692Z,12.61
2022-10-14T07:12:56.200Z,12.64
2022-10-14T07:15:23.332Z,12.68
2022-10-14T07:17:49.757Z,12.65
2022-10-14T07:20:16.666Z,12.63
2022-10-14T07:22:43.175Z,12.63
2022-10-14T07:25:10.375Z,12.59
2022-10-14T07:27:37.061Z,12.64
2022-10-14T07:30:05.719Z,12.65
2022-10-14T07:32:36.760Z,12.64
2022-10-14T07:35:03.986Z,12.66
2022-10-14T07:37:30.594Z,12.65
2022-10-14T07:39:56.977Z,12.68
2022-10-14T07:42:23.513Z,12.74
2022-10-14T07:44:50.318Z,12.71
2022-10-14T07:47:17.002Z,12.73
2022-10-14T07:49:43.460Z,12.79
2022-10-14T07:52:09.896Z,12.81
2022-10-14T07:54:36.489Z,12.81
2022-10-14T07:57:02.982Z,12.83
2022-10-14T07:59:29.865Z,12.87
2022-10-14T08:01:56.726Z,12.89
2022-10-14T08:04:24.329Z,13.00
2022-10-14T08:06:52.079Z,12.95
2022-10-14T08:09:19.785Z,13.03
2022-10-14T08:11:47.660Z,13.07
2022-10-14T08:14:14.215Z,13.11
2022-10-14T08:16:40.905Z,13.10
2022-10-14T08:19:13.848Z,13.16
2022-10-14T08:21:42.534Z,13.17
2022-10-14T08:24:09.659Z,13.22
2022-10-14T08:26:38.861Z,13.19
2022-10-14T08:29:15.404Z,13.38
2022-10-14T08:31:41.784Z,13.35
2022-10-14T08:34:08.411Z,13.42
2022-10-14T08:36:34.857Z,13.45
2022-10-14T08:39:01.313Z,13.48
2022-10-14T08:42:01.385Z,13.53
2022-10-14T08:44:36.873Z,13.52
2022-10-14T08:47:05.073Z,13.58
2022-10-14T08:49:59.922Z,13.62
2022-10-14T08:52:44.920Z,13.66
2022-10-14T08:55:29.205Z,13.73
2022-10-14T08:58:16.073Z,13.81
2022-10-14T09:00:44.994Z,13.82
2022-10-14T09:03:33.246Z,13.94
2022-10-14T09:06:03.488Z,13.91
2022-10-14T09:08:43.306Z,14.04
2022-10-14T09:11:34.387Z,14.04
2022-10-14T09:14:02.496Z,14.13
2022-10-14T09:16:33.045Z,14.16
2022-10-14T09:19:02.414Z,14.16
2022-10-14T09:21:47.909Z,14.05
2022-10-14T09:24:23.508Z,14.14
2022-10-14T09:27:18.019Z,14.21
2022-10-14T09:29:50.161Z,14.28
2022-10-14T09:32:31.905Z,14.28
2022-10-14T09:34:59.614Z,14.21
2022-10-14T09:37:31.966Z,14.30
2022-10-14T09:40:32.155Z,14.38
2022-10-14T09:43:12.066Z,14.45
2022-10-14T09:45:47.726Z,14.50
2022-10-14T09:48:33.602Z,14.56
2022-10-14T09:51:03.249Z,14.66
2022-10-14T09:53:31.640Z,14.79
2022-10-14T09:56:01.142Z,14.82
2022-10-14T09:58:57.358Z,14.94
2022-10-14T10:01:25.185Z,14.91
2022-10-14T10:03:53.451Z,14.94
2022-10-14T10:06:26.424Z,14.95
2022-10-14T10:08:52.731Z,14.97
2022-10-14T10:11:39.418Z,15.04
2022-10-14T10:14:25.239Z,15.16
2022-10-14T10:17:13.986Z,15.31
2022-10-14T10:19:46.377Z,15.43
2022-10-14T10:22:24.250Z,15.36
2022-10-14T10:25:03.618Z,15.54
2022-10-14T10:27:37.893Z,15.60
2022-10-14T10:30:23.451Z,15.68
2022-10-14T10:33:08.175Z,15.65
2022-10-14T10:35:34.528Z,15.79
2022-10-14T10:38:05.588Z,15.82
2022-10-14T10:41:08.360Z,15.79
2022-10-14T10:43:43.757Z,15.83
2022-10-14T10:46:16.104Z,15.80
2022-10-14T10:48:47.413Z,15.83
2022-10-14T10:51:22.479Z,15.71
2022-10-14T10:54:26.706Z,15.67
2022-10-14T10:56:59.165Z,15.61
2022-10-14T10:59:33.581Z,15.55
2022-10-14T11:02:12.471Z,15.56
2022-10-14T11:05:07.616Z,15.40
2022-10-14T11:08:14.156Z,15.45
2022-10-14T11:11:16.655Z,15.46
2022-10-14T11:13:44.143Z,15.47
2022-10-14T11:16:26.279Z,15.46
2022-10-14T11:19:02.765Z,15.48
2022-10-14T11:21:35.189Z,15.43
2022-10-14T11:24:26.609Z,15.48
2022-10-14T11:27:08.473Z,15.45
2022-10-14T11:29:56.545Z,15.44
2022-10-14T11:32:52.848Z,15.25
2022-10-14T11:38:25.185Z,15.29
2022-10-14T11:41:00.661Z,15.27
2022-10-14T11:43:32.175Z,15.22
2022-10-14T11:46:19.720Z,15.23
2022-10-14T11:48:51.158Z,15.11
2022-10-14T11:51:21.463Z,15.05
2022-10-14T11:54:03.821Z,15.00
2022-10-14T11:56:48.357Z,15.04
2022-10-14T11:59:33.596Z,14.92
2022-10-14T12:02:12.042Z,14.92
2022-10-14T12:04:43.819Z,14.86
2022-10-14T12:07:23.938Z,14.80
2022-10-14T12:10:29.901Z,14.80
2022-10-14T12:12:57.240Z,14.85
2022-10-14T12:15:26.684Z,14.87
2022-10-14T12:18:02.551Z,14.85
2022-10-14T12:21:04.120Z,14.74
2022-10-14T12:23:46.001Z,14.75
2022-10-14T12:26:24.629Z,14.76
2022-10-14T12:28:54.095Z,14.78
2022-10-14T12:31:38.457Z,14.73
2022-10-14T12:34:10.858Z,14.72
2022-10-14T12:36:38.802Z,14.72
2022-10-14T12:39:17.191Z,14.78
2022-10-14T12:42:00.202Z,14.81
2022-10-14T12:44:58.368Z,14.76
2022-10-14T12:47:34.732Z,14.85
2022-10-14T12:50:05.173Z,14.80
2022-10-14T12:52:39.453Z,14.82
2022-10-14T12:55:16.814Z,14.77
2022-10-14T12:57:43.674Z,14.75
2022-10-14T13:00:22.491Z,14.82
2022-10-14T13:02:56.958Z,14.70
2022-10-14T13:05:26.279Z,14.63
2022-10-14T13:08:20.190Z,14.63
2022-10-14T13:10:58.821Z,14.62
2022-10-14T13:13:49.179Z,14.59
2022-10-14T13:16:21.562Z,14.57
2022-10-14T13:18:52.542Z,14.54
2022-10-14T13:21:34.605Z,14.54
2022-10-14T13:24:22.934Z,14.62
2022-10-14T13:26:49.318Z,14.66
2022-10-14T13:29:50.165Z,14.74
2022-10-14T13:32:41.414Z,14.71
2022-10-14T13:35:29.140Z,14.78
2022-10-14T13:38:06.326Z,14.84
2022-10-14T13:40:42.995Z,14.93
2022-10-14T13:43:15.376Z,14.91
2022-10-14T13:45:48.802Z,14.98
2022-10-14T13:48:28.104Z,14.91
2022-10-14T13:51:23.923Z,14.84
2022-10-14T13:53:57.041Z,14.88
2022-10-14T13:56:29.846Z,14.90
2022-10-14T13:58:57.848Z,14.88
2022-10-14T14:01:39.193Z,14.85
2022-10-14T14:04:06.042Z,14.87
2022-10-14T14:06:40.051Z,14.92
2022-10-14T14:09:26.035Z,14.91
2022-10-14T14:11:59.796Z,14.89
2022-10-14T14:14:37.833Z,14.89
2022-10-14T14:17:07.782Z,14.83
2022-10-14T14:19:37.134Z,14.80
2022-10-14T14:22:28.927Z,14.81
2022-10-14T14:25:33.339Z,14.84
2022-10-14T14:28:03.326Z,14.83
2022-10-14T14:30:38.613Z,14.90
2022-10-14T14:33:11.753Z,14.90
2022-10-14T14:35:38.434Z,14.89
2022-10-14T14:38:04.832Z,14.88
2022-10-14T14:40:31.798Z,14.93
2022-10-14T14:43:03.673Z,14.89
2022-10-14T14:45:34.911Z,14.84
2022-10-14T14:48:07.580Z,14.91
2022-10-14T14:50:40.055Z,14.89
2022-10-14T14:53:23.778Z,14.89
2022-10-14T14:55:53.422Z,14.91
2022-10-14T14:58:43.995Z,14.86
2022-10-14T15:01:20.329Z,14.89
2022-10-14T15:04:12.396Z,14.87
2022-10-14T15:06:50.716Z,14.83
2022-10-14T15:09:24.228Z,14.89
2022-10-14T15:11:54.704Z,14.86
2022-10-14T15:14:44.003Z,14.89
2022-10-14T15:17:27.548Z,14.86
2022-10-14T15:19:54.258Z,14.80
2022-10-14T15:22:28.846Z,14.86
2022-10-14T15:25:09.942Z,14.85
2022-10-14T15:27:36.334Z,14.91
2022-10-14T15:30:23.332Z,14.86
2022-10-14T15:32:52.150Z,14.84
2022-10-14T15:35:21.495Z,14.80
2022-10-14T15:37:49.632Z,14.75
2022-10-14T15:40:27.420Z,14.73
2022-10-14T15:42:53.931Z,14.68
2022-10-14T15:45:20.679Z,14.71
2022-10-14T15:47:54.059Z,14.70
2022-10-14T15:50:24.156Z,14.69
2022-10-14T15:52:53.276Z,14.69
2022-10-14T15:55:28.182Z,14.63
2022-10-14T15:57:54.654Z,14.56
2022-10-14T16:00:23.904Z,14.53
2022-10-14T16:02:59.054Z,14.53
2022-10-14T16:05:26.017Z,14.52
2022-10-14T16:07:52.684Z,14.50
2022-10-14T16:10:21.482Z,14.47
2022-10-14T16:12:49.027Z,14.43
2022-10-14T16:15:37.451Z,14.36
2022-10-14T16:18:04.123Z,14.31
2022-10-14T16:20:30.980Z,14.30
2022-10-14T16:22:58.393Z,14.25
2022-10-14T16:25:35.083Z,14.25
2022-10-14T16:28:01.699Z,14.26
2022-10-14T16:30:28.291Z,14.22
2022-10-14T16:32:55.170Z,14.21
2022-10-14T16:35:21.701Z,14.18
2022-10-14T16:37:48.850Z,14.16
2022-10-14T16:40:15.629Z,14.10
2022-10-14T16:42:42.054Z,14.07
2022-10-14T16:45:09.071Z,14.06
2022-10-14T16:47:35.501Z,14.11
2022-10-14T16:50:02.158Z,14.17
2022-10-14T16:52:28.610Z,14.12
2022-10-14T16:54:55.196Z,14.15
2022-10-14T16:57:21.660Z,14.14
2022-10-14T16:59:49.289Z,14.10
2022-10-14T17:02:16.670Z,14.17
2022-10-14T17:04:46.399Z,14.20
2022-10-14T17:07:14.701Z,14.15
2022-10-14T17:09:41.320Z,14.15
2022-10-14T17:12:12.879Z,14.14
2022-10-14T17:14:41.069Z,14.18
2022-10-14T17:17:07.745Z,14.15
2022-10-14T17:19:34.271Z,14.19
2022-10-14T17:22:01.990Z,14.20
2022-10-14T17:24:29.492Z,14.16
2022-10-14T17:26:56.405Z,14.18
2022-10-14T17:29:22.881Z,14.14
2022-10-14T17:31:49.639Z,14.14
2022-10-14T17:34:16.077Z,14.17
2022-10-14T17:36:43.941Z,14.14
2022-10-14T17:39:21.463Z,14.10
2022-10-14T17:41:53.986Z,14.07
2022-10-14T17:44:20.625Z,14.10
2022-10-14T17:46:47.078Z,14.10
2022-10-14T17:49:15.051Z,14.09
2022-10-14T17:51:41.825Z,14.04
2022-10-14T17:54:11.297Z,14.04
2022-10-14T17:56:38.723Z,14.04
2022-10-14T17:59:07.519Z,14.03
2022-10-14T18:02:01.032Z,14.03
2022-10-14T18:06:53.998Z,13.95
2022-10-14T18:09:20.429Z,13.94
2022-10-14T18:12:07.827Z,13.95
2022-10-14T18:14:34.949Z,13.98
2022-10-14T18:17:01.790Z,13.95
2022-10-14T18:19:28.307Z,13.98
2022-10-14T18:21:54.924Z,14.00
2022-10-14T18:24:21.375Z,13.98
2022-10-14T18:26:51.467Z,14.00
2022-10-14T18:29:17.879Z,13.98
2022-10-14T18:31:44.453Z,14.01
2022-10-14T18:34:11.714Z,14.05
2022-10-14T18:36:38.570Z,14.01
2022-10-14T18:39:08.041Z,14.06
2022-10-14T18:41:36.881Z,14.03
2022-10-14T18:44:05.186Z,14.05
2022-10-14T18:46:34.035Z,14.05
2022-10-14T18:49:01.937Z,14.02
2022-10-14T18:51:40.158Z,14.00
2022-10-14T18:54:15.069Z,14.08
2022-10-14T18:56:42.105Z,14.06
2022-10-14T18:59:19.313Z,14.08
2022-10-14T19:01:47.516Z,14.07
2022-10-14T19:04:15.528Z,14.06
2022-10-14T19:06:45.765Z,14.07
2022-10-14T19:09:13.590Z,14.06
2022-10-14T19:11:41.192Z,14.03
2022-10-14T19:14:08.110Z,14.04
2022-10-14T19:16:36.621Z,14.09
2022-10-14T19:19:18.192Z,14.05
2022-10-14T19:21:47.466Z,14.03
2022-10-14T19:24:15.479Z,14.03
2022-10-14T19:26:44.076Z,14.00
2022-10-14T19:29:12.998Z,13.98
2022-10-14T19:31:40.773Z,14.07
2022-10-14T19:34:10.179Z,13.98
2022-10-14T19:36:39.293Z,14.07
2022-10-14T19:39:08.124Z,13.99
2022-10-14T19:41:42.881Z,14.05
2022-10-14T19:44:10.685Z,14.00
2022-10-14T19:46:37.508Z,13.99
2022-10-14T19:49:04.652Z,13.98
2022-10-14T19:51:33.030Z,13.97
2022-10-14T19:54:00.273Z,13.96
2022-10-14T19:56:27.169Z,13.92
2022-10-14T19:58:55.877Z,14.00
2022-10-14T20:01:25.148Z,13.95
2022-10-14T20:03:52.396Z,13.89
2022-10-14T20:06:20.335Z,13.95
2022-10-14T20:08:46.897Z,13.86
2022-10-14T20:11:17.855Z,13.87
2022-10-14T20:13:45.106Z,13.84
2022-10-14T20:16:12.493Z,13.88
2022-10-14T20:18:39.383Z,13.90
2022-10-14T20:21:07.015Z,13.92
2022-10-14T20:23:40.549Z,13.99
2022-10-14T20:26:19.790Z,13.96
2022-10-14T20:28:47.335Z,13.88
2022-10-14T20:31:16.457Z,13.85
2022-10-14T20:33:43.467Z,13.93
2022-10-14T20:36:15.880Z,13.97
2022-10-14T20:38:43.447Z,13.98
2022-10-14T20:41:16.180Z,13.91
2022-10-14T20:43:44.171Z,13.95
2022-10-14T20:46:11.091Z,13.87
2022-10-14T20:48:37.885Z,13.87
2022-10-14T20:51:05.687Z,13.87
2022-10-14T20:53:32.760Z,13.87
2022-10-14T20:56:08.279Z,13.88
2022-10-14T20:58:35.545Z,13.88
2022-10-14T21:01:10.789Z,13.82
2022-10-14T21:03:37.929Z,13.82
2022-10-14T21:06:06.102Z,13.80
2022-10-14T21:08:33.211Z,13.78
2022-10-14T21:11:01.046Z,13.77
2022-10-14T21:13:29.652Z,13.76
2022-10-14T21:15:56.395Z,13.86
2022-10-14T21:18:23.938Z,13.83
2022-10-14T21:23:22.370Z,13.85
2022-10-14T21:25:56.730Z,13.81
2022-10-14T21:28:23.747Z,13.79
2022-10-14T21:30:50.426Z,13.78
2022-10-14T21:33:16.975Z,13.74
2022-10-14T21:35:43.518Z,13.73
2022-10-14T21:38:09.996Z,13.72
2022-10-14T21:40:36.746Z,13.73
2022-10-14T21:43:03.234Z,13.73
2022-10-14T21:45:29.789Z,13.75
2022-10-14T21:47:56.250Z,13.74
2022-10-14T21:50:22.731Z,13.76
2022-10-14T21:52:49.160Z,13.70
2022-10-14T21:55:15.522Z,13.71
2022-10-14T21:57:42.070Z,13.63
2022-10-14T22:00:10.577Z,13.65
2022-10-14T22:02:37.099Z,13.58
2022-10-14T22:05:03.851Z,13.59
2022-10-14T22:07:31.124Z,13.54
2022-10-14T22:09:57.552Z,13.55
2022-10-14T22:12:24.431Z,13.56
2022-10-14T22:14:50.904Z,13.57
2022-10-14T22:17:17.360Z,13.55
2022-10-14T22:19:43.824Z,13.55
2022-10-14T22:22:11.408Z,13.57
2022-10-14T22:24:37.869Z,13.52
2022-10-14T22:27:04.429Z,13.54
2022-10-14T22:29:30.869Z,13.55
2022-10-14T22:31:57.347Z,13.60
2022-10-14T22:34:24.019Z,13.57
2022-10-14T22:36:50.442Z,13.54
2022-10-14T22:39:17.173Z,13.56
2022-10-14T22:41:43.686Z,13.58
2022-10-14T22:44:10.707Z,13.53
2022-10-14T22:46:39.034Z,13.52
2022-10-14T22:49:06.121Z,13.49
2022-10-14T22:51:36.130Z,13.52
2022-10-14T22:54:02.810Z,13.49
2022-10-14T22:56:30.843Z,13.48
2022-10-14T22:59:06.485Z,13.44
2022-10-14T23:01:34.125Z,13.41
2022-10-14T23:04:01.511Z,13.43
2022-10-14T23:06:29.121Z,13.47
2022-10-14T23:08:56.250Z,13.44
2022-10-14T23:11:24.802Z,13.39
2022-10-14T23:13:51.802Z,13.39
2022-10-14T23:16:20.766Z,13.35
2022-10-14T23:18:48.221Z,13.37
2022-10-14T23:21:25.820Z,13.40
2022-10-14T23:23:53.661Z,13.37
2022-10-14T23:26:22.755Z,13.39
2022-10-14T23:28:51.452Z,13.32
2022-10-14T23:31:20.710Z,13.28
2022-10-14T23:33:49.044Z,13.26
2022-10-14T23:36:16.258Z,13.18
2022-10-14T23:38:43.424Z,13.18
2022-10-14T23:41:11.570Z,13.21
2022-10-14T23:43:38.503Z,13.21
2022-10-14T23:46:05.792Z,13.20
2022-10-14T23:48:32.885Z,13.21
2022-10-14T23:50:59.930Z,13.23
2022-10-14T23:53:27.208Z,13.22
2022-10-14T23:55:55.037Z,13.23
2022-10-14T23:58:22.999Z,13.23
